Portada
METAR-TAF:

METAR-TAF

Aeropuertos :

Abraham Lincoln Capital Airport

Springfield, Illinois, Estados Unidos

latitud: 39-50-43N, longitud: 089-41-02W, altitud: 182 m

Observación

El informe se hizo hace 1 hora y 14 minutos, a las 07:52 UTC
Viento calma
Temperatura 20°C
Humedad 94%
Presión 1015 hPa
Visibilidad: 16.1 km
Cielo despejado

METAR: KSPI 060752Z AUTO 00000KT 10SM CLR 20/19 A2997 RMK AO2 SLP143 T02000189

Hora: 04:06 (09:06 UTC)

Pronóstico

El informe se hizo hace 3 horas y 46 minutos, a las 05:20 UTC
Pronóstico válido del 06 a las 06 UTC al 07 a las 06 UTC
Viento 3 kt con dirección variable
Visibilidad: 10 km
Escasas nubes a una altura de 25000 ft
A partir de las 06 a las 1200 UTC
Viento 8 kt del este-noreste
Visibilidad: 10 km
Escasas nubes a una altura de 25000 ft

TAF: KSPI 060520Z 0606/0706 VRB03KT P6SM FEW250 FM061200 07008KT P6SM FEW250

Observaciones y pronósticos meteorológicos de más de 4000 aeropuertos (mensajes METAR y TAF).

Los puntos amarillos y rojos representan las estaciones disponibles.

Ponga el ratón en el punto deseado para ver el nombre de la estación.

Haga clic para ver las observaciones y los pronósticos meteorológicos.

Para cambiar el mapa : haga clic en los botones verdes con una cruz de color negro para hacer un zoom, en el botón verde con un guión para alejar o en las flechas verdes para mapas adyacentes.


METAR-TAF: